Time;durP1;ratioP1;P1;durP2;ratioP2;P2;SDS_P1;SDS_P2;PMS_P1;PMS_P2;Temp;Humidity;BMP_temperature;BMP_pressure;BME280_temperature;BME280_humidity;BME280_pressure;Samples;Min_cycle;Max_cycle;Signal;HPM_P1;HPM_P2
2022/01/23 00:02:05;;;;;;;10.75;4.03;;;6.60;99.90;;;;;;5055677;28;20412;-66
2022/01/23 00:04:31;;;;;;;8.63;3.35;;;6.50;99.90;;;;;;5073511;28;20188;-66
2022/01/23 00:06:56;;;;;;;8.85;3.50;;;6.60;99.90;;;;;;5073809;28;20572;-66
2022/01/23 00:09:22;;;;;;;11.02;3.95;;;6.50;99.90;;;;;;5073660;28;20063;-66
2022/01/23 00:11:52;;;;;;;11.82;4.03;;;6.60;99.90;;;;;;5073245;28;20497;-66
2022/01/23 00:17:18;;;;;;;10.95;3.70;;;6.60;99.90;;;;;;5055117;28;20048;-66
2022/01/23 00:19:45;;;;;;;7.32;3.92;;;6.50;99.90;;;;;;5073240;28;20116;-66
2022/01/23 00:22:11;;;;;;;9.90;4.35;;;6.50;99.90;;;;;;5073034;28;20123;-66
2022/01/23 00:30:27;;;;;;;10.68;3.75;;;6.50;99.90;;;;;;5073229;28;20119;-67
2022/01/23 00:32:57;;;;;;;9.25;3.88;;;6.60;99.90;;;;;;5072822;28;20397;-67
2022/01/23 00:35:24;;;;;;;8.60;4.05;;;6.50;99.90;;;;;;5073028;28;20105;-67
2022/01/23 00:37:50;;;;;;;10.02;4.13;;;6.50;99.90;;;;;;5072775;28;20127;-67
2022/01/23 00:40:17;;;;;;;9.13;4.07;;;6.50;99.90;;;;;;5073147;28;20036;-67
2022/01/23 00:42:42;;;;;;;13.68;3.63;;;6.50;99.90;;;;;;5072633;28;20413;-67
2022/01/23 00:45:28;;;;;;;9.18;4.35;;;6.50;99.90;;;;;;5072940;28;20036;-67
2022/01/23 00:47:59;;;;;;;8.10;4.22;;;6.50;99.90;;;;;;5054607;28;20040;-66
2022/01/23 00:50:25;;;;;;;12.25;4.32;;;6.60;99.90;;;;;;5071619;28;20036;-67
2022/01/23 00:52:51;;;;;;;10.95;3.67;;;6.50;99.90;;;;;;5072305;28;20075;-66
2022/01/23 00:55:17;;;;;;;12.40;4.30;;;6.50;99.90;;;;;;5072687;28;20072;-67
2022/01/23 00:57:42;;;;;;;7.43;4.35;;;6.50;99.90;;;;;;5070690;28;20493;-66
2022/01/23 01:00:09;;;;;;;10.10;4.13;;;6.50;99.90;;;;;;5050935;28;20033;-66
2022/01/23 01:02:35;;;;;;;9.85;4.22;;;6.50;99.90;;;;;;5071582;28;20033;-66
2022/01/23 01:05:01;;;;;;;11.05;3.75;;;6.50;99.90;;;;;;5072009;28;20039;-67
2022/01/23 01:07:26;;;;;;;6.13;4.07;;;6.50;99.90;;;;;;5072322;28;20037;-66
2022/01/23 01:09:54;;;;;;;5.75;3.97;;;6.50;99.90;;;;;;5072286;28;20039;-67
2022/01/23 01:12:25;;;;;;;5.90;3.95;;;6.50;99.90;;;;;;5071978;28;20037;-66
2022/01/23 01:33:37;;;;;;;8.65;4.53;;;6.50;99.90;;;;;;5053261;28;20053;-67
2022/01/23 01:36:19;;;;;;;8.40;4.43;;;6.40;99.90;;;;;;5071638;28;20036;-67
2022/01/23 01:38:45;;;;;;;6.55;4.13;;;6.50;99.90;;;;;;5072016;28;20377;-67
2022/01/23 01:41:12;;;;;;;7.22;4.47;;;6.40;99.90;;;;;;5071842;28;20070;-67
2022/01/23 01:43:37;;;;;;;8.10;4.05;;;6.50;99.90;;;;;;5053636;28;20080;-67
2022/01/23 01:46:03;;;;;;;6.28;4.00;;;6.50;99.90;;;;;;5053665;28;20048;-67
2022/01/23 01:48:29;;;;;;;9.73;4.38;;;6.50;99.90;;;;;;5071586;28;20040;-66
2022/01/23 01:50:56;;;;;;;7.30;3.90;;;6.50;99.90;;;;;;5071571;28;20123;-67
2022/01/23 01:53:22;;;;;;;11.05;4.13;;;6.50;99.90;;;;;;5070196;28;20036;-66
2022/01/23 01:55:53;;;;;;;12.70;4.35;;;6.50;99.90;;;;;;5071651;28;20489;-67
2022/01/23 02:01:11;;;;;;;7.85;4.55;;;6.40;99.90;;;;;;5071311;28;20453;-67
2022/01/23 02:08:20;;;;;;;11.70;4.38;;;6.50;99.90;;;;;;5071285;28;20040;-67
2022/01/23 02:09:12;;;;;;;8.32;4.78;;;6.40;99.90;;;;;;5071261;28;20049;-67
2022/01/23 02:12:08;;;;;;;8.20;4.40;;;6.50;99.90;;;;;;5053308;28;20097;-67
2022/01/23 02:25:16;;;;;;;10.20;4.72;;;6.50;99.90;;;;;;5071477;28;20075;-66
2022/01/23 02:55:10;;;;;;;8.32;5.10;;;6.40;99.90;;;;;;5071031;28;20045;-66
2022/01/23 02:57:51;;;;;;;7.53;4.95;;;6.40;99.90;;;;;;5052957;28;20405;-66
2022/01/23 03:00:19;;;;;;;11.60;5.28;;;6.40;99.90;;;;;;5052813;28;20048;-66
2022/01/23 03:02:48;;;;;;;6.85;4.70;;;6.40;99.90;;;;;;5052693;28;20083;-66
2022/01/23 03:05:34;;;;;;;9.57;4.70;;;6.40;99.90;;;;;;5053058;28;20045;-66
2022/01/23 03:08:21;;;;;;;12.07;4.93;;;6.40;99.90;;;;;;5052546;28;20045;-66
2022/01/23 03:11:00;;;;;;;9.48;4.57;;;6.40;99.90;;;;;;5052760;28;20048;-67
2022/01/23 03:24:15;;;;;;;8.50;5.03;;;6.40;99.90;;;;;;5074104;28;20070;-66
2022/01/23 03:26:57;;;;;;;14.27;5.85;;;6.40;99.90;;;;;;5074233;28;20040;-66
2022/01/23 03:29:29;;;;;;;9.90;5.75;;;6.50;99.90;;;;;;5074157;28;20371;-66
2022/01/23 03:34:23;;;;;;;11.70;5.40;;;6.40;99.90;;;;;;5056081;28;20514;-67
2022/01/23 03:36:49;;;;;;;9.52;5.20;;;6.40;99.90;;;;;;5056068;28;20121;-66
2022/01/23 03:39:16;;;;;;;8.25;5.28;;;6.40;99.90;;;;;;5073871;28;20527;-66
2022/01/23 03:41:43;;;;;;;13.13;6.35;;;6.40;99.90;;;;;;5074089;28;20048;-66
2022/01/23 03:44:10;;;;;;;11.60;5.65;;;6.40;99.90;;;;;;5074056;28;20120;-66
2022/01/23 03:49:31;;;;;;;9.77;5.40;;;6.40;99.90;;;;;;5055903;28;20055;-66
2022/01/23 03:52:17;;;;;;;9.40;6.00;;;6.40;99.90;;;;;;5073569;28;20094;-66
2022/01/23 03:54:43;;;;;;;11.93;5.85;;;6.40;99.90;;;;;;5073446;28;20063;-66
2022/01/23 03:57:09;;;;;;;10.80;6.10;;;6.40;99.90;;;;;;5073873;28;20570;-66
2022/01/23 03:59:35;;;;;;;12.23;6.80;;;6.40;99.90;;;;;;5073666;28;20040;-66
2022/01/23 04:02:03;;;;;;;12.05;6.00;;;6.40;99.90;;;;;;5073345;28;20052;-66
2022/01/23 04:06:57;;;;;;;11.10;6.60;;;6.40;99.90;;;;;;5055686;28;20126;-66
2022/01/23 04:09:23;;;;;;;10.82;6.20;;;6.40;99.90;;;;;;5073359;28;20049;-66
2022/01/23 04:11:49;;;;;;;10.98;6.38;;;6.40;99.90;;;;;;5072940;28;20215;-66
2022/01/23 04:14:17;;;;;;;12.85;6.13;;;6.40;99.90;;;;;;5073235;28;20037;-66
2022/01/23 04:17:08;;;;;;;12.07;6.25;;;6.40;99.90;;;;;;5073261;28;20045;-66
2022/01/23 04:19:56;;;;;;;14.95;6.63;;;6.40;99.90;;;;;;5073142;28;20182;-66
2022/01/23 05:00:19;;;;;;;10.23;6.68;;;6.40;99.90;;;;;;5054595;28;20041;-66
2022/01/23 05:03:22;;;;;;;13.85;6.55;;;6.30;99.90;;;;;;5053808;28;20033;-66
2022/01/23 05:05:33;;;;;;;13.02;6.70;;;6.40;99.90;;;;;;5072350;28;20404;-66
2022/01/23 05:08:03;;;;;;;13.88;6.45;;;6.40;99.90;;;;;;5054256;28;20041;-66
2022/01/23 05:10:29;;;;;;;12.10;6.20;;;6.40;99.90;;;;;;5072469;28;20044;-66
2022/01/23 05:12:55;;;;;;;12.50;8.25;;;6.40;99.90;;;;;;5071795;28;20459;-66
2022/01/23 05:15:21;;;;;;;14.90;7.95;;;6.40;99.90;;;;;;5072096;28;20492;-66
2022/01/23 05:17:47;;;;;;;13.00;6.90;;;6.30;99.90;;;;;;5071684;28;20040;-66
2022/01/23 05:20:16;;;;;;;14.32;6.78;;;6.40;99.90;;;;;;5072126;28;20331;-66
2022/01/23 05:22:48;;;;;;;13.48;7.28;;;6.40;99.90;;;;;;5071863;28;20094;-66
2022/01/23 05:25:20;;;;;;;12.07;6.90;;;6.40;99.90;;;;;;5072086;28;20045;-66
2022/01/23 05:27:46;;;;;;;13.60;7.63;;;6.30;99.90;;;;;;5071956;28;20055;-66
2022/01/23 05:30:12;;;;;;;10.45;6.75;;;6.30;99.90;;;;;;5071786;28;20271;-66
2022/01/23 05:32:40;;;;;;;13.50;6.70;;;6.40;99.90;;;;;;5071677;28;20519;-66
2022/01/23 05:35:07;;;;;;;16.17;6.72;;;6.30;99.90;;;;;;5071944;28;20381;-66
2022/01/23 05:37:33;;;;;;;11.73;6.88;;;6.40;99.90;;;;;;5071294;28;20091;-66
2022/01/23 05:39:59;;;;;;;16.23;6.95;;;6.40;99.90;;;;;;5071672;28;20075;-66
2022/01/23 05:42:25;;;;;;;15.05;6.72;;;6.40;99.90;;;;;;5071294;28;20048;-66
2022/01/23 05:44:51;;;;;;;14.85;6.50;;;6.40;99.90;;;;;;5071397;28;20052;-66
2022/01/23 05:47:16;;;;;;;14.18;6.82;;;6.30;99.90;;;;;;5053623;28;20127;-66
2022/01/23 05:49:42;;;;;;;12.18;6.20;;;6.40;99.90;;;;;;5071632;28;20029;-65
2022/01/23 05:52:08;;;;;;;9.73;6.13;;;6.30;99.90;;;;;;5071276;28;20047;-66
2022/01/23 05:54:34;;;;;;;13.88;7.03;;;6.30;99.90;;;;;;5071553;28;20040;-66
2022/01/23 05:57:00;;;;;;;11.95;5.72;;;6.30;99.90;;;;;;5071381;28;20043;-66
2022/01/23 05:59:25;;;;;;;10.18;6.35;;;6.30;99.90;;;;;;5071403;28;20036;-66
2022/01/23 06:01:51;;;;;;;10.05;5.57;;;6.30;99.90;;;;;;5071251;28;20040;-66
2022/01/23 06:04:19;;;;;;;15.73;6.63;;;6.30;99.90;;;;;;5071508;28;20076;-66
2022/01/23 06:06:46;;;;;;;9.70;6.43;;;6.40;99.90;;;;;;5071469;28;20040;-66
2022/01/23 06:09:12;;;;;;;10.13;5.55;;;6.30;99.90;;;;;;5071391;28;20086;-66
2022/01/23 06:11:38;;;;;;;10.93;5.97;;;6.30;99.90;;;;;;5071036;28;20453;-66
2022/01/23 06:14:03;;;;;;;9.27;6.47;;;6.30;99.90;;;;;;5071035;28;20068;-66
2022/01/23 06:16:29;;;;;;;17.95;7.95;;;6.30;99.90;;;;;;5071421;28;20044;-66
2022/01/23 06:18:55;;;;;;;10.93;5.95;;;6.30;99.90;;;;;;5071363;28;20131;-66
2022/01/23 06:21:21;;;;;;;13.73;6.55;;;6.30;99.90;;;;;;5071304;28;20065;-66
2022/01/23 06:24:00;;;;;;;13.05;6.40;;;6.30;99.90;;;;;;5070614;28;20040;-66
2022/01/23 06:26:33;;;;;;;16.30;6.85;;;6.30;99.90;;;;;;5052990;28;20439;-66
2022/01/23 06:29:01;;;;;;;;;;;6.30;99.90;;;;;;5071400;28;20044;-66
2022/01/23 06:31:27;;;;;;;12.80;7.40;;;6.30;99.90;;;;;;5071261;28;19917;-66
2022/01/23 06:33:53;;;;;;;10.95;6.88;;;6.30;99.90;;;;;;5070697;28;20507;-66
2022/01/23 06:36:18;;;;;;;9.82;5.53;;;6.30;99.90;;;;;;5071142;28;20067;-66
2022/01/23 06:38:44;;;;;;;9.13;6.50;;;6.30;99.90;;;;;;5071005;28;20090;-66
2022/01/23 06:41:09;;;;;;;10.07;6.30;;;6.20;99.90;;;;;;5071279;28;20070;-66
2022/01/23 06:43:35;;;;;;;11.27;6.43;;;6.20;99.90;;;;;;5070804;28;20040;-66
2022/01/23 06:46:01;;;;;;;12.20;6.97;;;6.20;99.90;;;;;;5071016;28;20178;-66
2022/01/23 06:48:26;;;;;;;15.00;7.25;;;6.20;99.90;;;;;;5073977;28;20072;-66
2022/01/23 06:50:52;;;;;;;17.30;9.13;;;6.20;99.90;;;;;;5075040;28;20064;-66
2022/01/23 06:53:17;;;;;;;14.70;8.50;;;6.20;99.90;;;;;;5074612;28;20086;-66
2022/01/23 06:55:43;;;;;;;16.67;7.03;;;6.30;99.90;;;;;;5075066;28;20040;-66
2022/01/23 06:58:08;;;;;;;11.60;6.53;;;6.30;99.90;;;;;;5074985;28;20097;-66
2022/01/23 07:00:35;;;;;;;11.13;5.97;;;6.30;99.90;;;;;;5074791;28;20401;-66
2022/01/23 07:03:01;;;;;;;9.70;5.82;;;6.30;99.90;;;;;;5074460;28;20047;-66
2022/01/23 07:05:27;;;;;;;8.70;5.95;;;6.30;99.90;;;;;;5056794;28;20489;-65
2022/01/23 07:07:52;;;;;;;9.45;5.68;;;6.30;99.90;;;;;;5074421;28;20440;-66
2022/01/23 07:10:20;;;;;;;10.73;6.25;;;6.30;99.90;;;;;;5056918;28;20071;-66
2022/01/23 07:12:45;;;;;;;10.82;6.22;;;6.30;99.90;;;;;;5072970;28;20037;-66
2022/01/23 07:15:11;;;;;;;9.00;5.82;;;6.30;99.90;;;;;;5074554;28;20115;-66
2022/01/23 07:17:43;;;;;;;15.48;6.00;;;6.30;99.90;;;;;;5074376;28;20469;-66
2022/01/23 07:20:09;;;;;;;8.63;5.57;;;6.30;99.90;;;;;;5074139;28;20091;-66
2022/01/23 07:22:35;;;;;;;13.18;5.93;;;6.30;99.90;;;;;;5073706;28;20412;-66
2022/01/23 07:25:03;;;;;;;11.70;6.78;;;6.30;99.90;;;;;;5074478;28;20029;-66
2022/01/23 07:27:34;;;;;;;10.13;6.45;;;6.30;99.90;;;;;;5074317;28;20036;-66
2022/01/23 07:30:05;;;;;;;12.57;6.50;;;6.30;99.90;;;;;;5073999;28;20067;-65
2022/01/23 07:32:31;;;;;;;12.40;6.57;;;6.30;99.90;;;;;;5072649;28;20160;-66
2022/01/23 07:34:57;;;;;;;12.32;6.72;;;6.30;99.90;;;;;;5070750;28;20037;-66
2022/01/23 07:37:22;;;;;;;10.73;6.25;;;6.30;99.90;;;;;;5071003;28;20576;-66
2022/01/23 07:39:48;;;;;;;9.77;6.32;;;6.30;99.90;;;;;;5071088;28;20122;-66
2022/01/23 07:42:13;;;;;;;14.45;6.60;;;6.30;99.90;;;;;;5073128;28;20074;-67
2022/01/23 07:44:39;;;;;;;13.10;7.22;;;6.30;99.90;;;;;;5038782;28;20040;-67
2022/01/23 07:47:06;;;;;;;10.82;6.65;;;6.20;99.90;;;;;;5073446;28;20043;-67
2022/01/23 07:49:32;;;;;;;10.25;6.50;;;6.20;99.90;;;;;;5054659;28;20041;-66
2022/01/23 07:51:59;;;;;;;15.60;6.47;;;6.20;99.90;;;;;;5073273;28;20036;-66
2022/01/23 07:54:25;;;;;;;11.57;6.57;;;6.20;99.90;;;;;;5075337;28;20185;-66
2022/01/23 07:56:50;;;;;;;9.85;5.45;;;6.30;99.90;;;;;;5083265;28;20024;-66
2022/01/23 07:59:16;;;;;;;12.60;6.45;;;6.30;99.90;;;;;;5081406;28;20037;-66
2022/01/23 08:01:42;;;;;;;10.73;6.43;;;6.30;99.90;;;;;;5039136;28;20443;-66
2022/01/23 08:04:08;;;;;;;13.13;6.93;;;6.20;99.90;;;;;;5073592;28;20045;-66
2022/01/23 08:06:41;;;;;;;10.68;6.68;;;6.30;99.90;;;;;;5055853;28;20083;-67
2022/01/23 08:09:08;;;;;;;13.40;7.45;;;6.30;99.90;;;;;;5073506;28;20523;-66
2022/01/23 08:11:34;;;;;;;11.30;7.45;;;6.30;99.90;;;;;;5073539;28;20127;-66
2022/01/23 08:14:00;;;;;;;12.80;7.03;;;6.30;99.90;;;;;;5073179;28;20055;-67
2022/01/23 08:16:26;;;;;;;15.18;7.32;;;6.30;99.90;;;;;;5073221;28;20107;-66
2022/01/23 08:18:51;;;;;;;12.25;7.43;;;6.30;99.90;;;;;;5055497;28;20644;-66
2022/01/23 08:21:17;;;;;;;13.05;7.75;;;6.30;99.90;;;;;;5055081;28;20060;-67
2022/01/23 08:23:42;;;;;;;16.30;7.85;;;6.40;99.90;;;;;;5072803;28;20045;-67
2022/01/23 08:26:09;;;;;;;13.45;7.60;;;6.30;99.90;;;;;;5072952;28;20047;-67
2022/01/23 08:28:35;;;;;;;13.30;7.18;;;6.40;99.90;;;;;;5072862;28;20409;-67
2022/01/23 08:31:01;;;;;;;11.98;7.05;;;6.30;99.90;;;;;;5054972;28;20129;-67
2022/01/23 08:33:27;;;;;;;15.88;7.97;;;6.40;99.90;;;;;;5054533;28;20471;-68
2022/01/23 08:35:56;;;;;;;15.18;8.55;;;6.40;99.90;;;;;;5055285;28;20040;-67
2022/01/23 08:38:22;;;;;;;13.98;6.97;;;6.40;99.90;;;;;;5072378;28;20040;-67
2022/01/23 08:41:49;;;;;;;14.02;7.72;;;6.40;99.90;;;;;;5073040;28;20116;-67
2022/01/23 08:43:34;;;;;;;13.70;7.90;;;6.40;99.90;;;;;;5072170;28;20074;-67
2022/01/23 08:45:59;;;;;;;14.38;7.82;;;6.50;99.90;;;;;;5075520;28;20441;-67
2022/01/23 08:48:25;;;;;;;12.30;7.25;;;6.50;99.90;;;;;;5081159;28;20127;-66
2022/01/23 08:50:50;;;;;;;15.32;8.40;;;6.50;99.90;;;;;;5064625;28;20060;-66
2022/01/23 08:53:16;;;;;;;18.08;9.70;;;6.50;99.90;;;;;;5072423;28;20060;-67
2022/01/23 08:55:41;;;;;;;26.95;14.30;;;6.60;99.90;;;;;;5072720;28;20055;-66
2022/01/23 08:58:07;;;;;;;21.35;10.48;;;6.50;99.90;;;;;;5054440;28;20055;-67
2022/01/23 09:00:32;;;;;;;35.28;17.10;;;6.50;99.90;;;;;;5072384;28;20040;-66
2022/01/23 09:02:58;;;;;;;20.27;11.73;;;6.50;99.90;;;;;;5072194;28;20054;-67
2022/01/23 09:05:26;;;;;;;14.45;7.88;;;6.50;99.90;;;;;;5054361;28;20045;-66
2022/01/23 09:07:51;;;;;;;23.80;14.02;;;6.60;99.90;;;;;;5072287;28;20048;-66
2022/01/23 09:10:25;;;;;;;15.90;9.23;;;6.60;99.90;;;;;;5071927;28;20032;-66
2022/01/23 09:13:06;;;;;;;17.67;9.80;;;6.60;99.90;;;;;;5071589;28;20441;-66
2022/01/23 09:15:33;;;;;;;13.65;8.05;;;6.60;99.90;;;;;;5072400;28;20047;-66
2022/01/23 09:17:58;;;;;;;14.13;7.75;;;6.60;99.90;;;;;;5054323;28;20079;-66
2022/01/23 09:20:24;;;;;;;16.52;8.38;;;6.60;99.90;;;;;;5072033;28;20068;-66
2022/01/23 09:22:49;;;;;;;14.73;7.82;;;6.70;99.90;;;;;;5053681;28;20404;-66
2022/01/23 09:25:15;;;;;;;14.20;7.18;;;6.70;99.90;;;;;;5071803;28;20454;-66
2022/01/23 09:27:41;;;;;;;13.40;8.13;;;6.70;99.90;;;;;;5071752;28;20037;-66
2022/01/23 09:30:17;;;;;;;14.65;6.68;;;6.70;99.90;;;;;;5071997;28;20037;-67
2022/01/23 09:32:43;;;;;;;11.32;7.13;;;6.80;99.90;;;;;;5071635;28;20048;-67
2022/01/23 09:35:14;;;;;;;19.42;6.70;;;6.80;99.90;;;;;;5071967;28;20135;-67
2022/01/23 09:37:41;;;;;;;14.38;7.22;;;6.80;99.90;;;;;;5071210;28;20036;-66
2022/01/23 09:40:07;;;;;;;13.23;7.82;;;6.80;99.90;;;;;;5071856;28;20115;-70
2022/01/23 09:42:43;;;;;;;12.75;7.03;;;6.80;99.90;;;;;;5071241;28;20152;-67
2022/01/23 09:45:12;;;;;;;12.27;7.15;;;6.90;99.90;;;;;;5071557;28;20037;-67
2022/01/23 09:47:38;;;;;;;15.48;7.13;;;6.90;99.90;;;;;;5071358;28;20496;-66
2022/01/23 09:50:06;;;;;;;11.75;7.07;;;6.90;99.90;;;;;;5071102;28;20048;-67
2022/01/23 09:52:34;;;;;;;17.08;7.57;;;6.90;99.90;;;;;;5073604;28;20036;-67
2022/01/23 09:55:09;;;;;;;12.68;5.82;;;7.00;99.90;;;;;;5072352;28;20048;-67
2022/01/23 09:57:41;;;;;;;14.57;7.55;;;7.00;99.90;;;;;;5062506;28;20032;-67
2022/01/23 10:00:16;;;;;;;12.55;6.22;;;7.00;99.90;;;;;;5060507;28;20051;-67
2022/01/23 10:02:42;;;;;;;12.05;7.20;;;7.00;99.90;;;;;;5070001;28;20087;-66
2022/01/23 10:05:08;;;;;;;14.40;6.43;;;7.00;99.90;;;;;;5091299;28;20051;-66
2022/01/23 10:07:39;;;;;;;9.73;6.00;;;7.00;99.90;;;;;;5091420;28;20502;-66
2022/01/23 10:10:12;;;;;;;13.60;6.43;;;7.00;99.90;;;;;;5090632;28;20044;-66
2022/01/23 10:12:45;;;;;;;12.88;6.63;;;7.00;99.90;;;;;;5072734;28;20120;-66
2022/01/23 10:15:12;;;;;;;12.63;7.38;;;7.10;99.90;;;;;;5091253;28;20036;-66
2022/01/23 10:17:38;;;;;;;11.82;7.55;;;7.10;99.90;;;;;;5091315;28;20067;-66
2022/01/23 10:20:06;;;;;;;14.48;7.32;;;7.10;99.90;;;;;;5090994;28;20048;-66
2022/01/23 10:22:33;;;;;;;11.05;6.55;;;7.10;99.90;;;;;;5090472;28;20032;-66
2022/01/23 10:25:23;;;;;;;14.00;6.85;;;7.10;99.90;;;;;;5072919;28;20047;-66
2022/01/23 10:28:07;;;;;;;9.90;6.00;;;7.10;99.90;;;;;;5056171;28;20109;-66
2022/01/23 10:30:49;;;;;;;10.15;5.40;;;7.20;99.90;;;;;;5091258;28;20048;-67
2022/01/23 10:33:24;;;;;;;9.07;5.10;;;7.20;99.90;;;;;;5090934;28;20076;-67
2022/01/23 10:35:58;;;;;;;10.27;5.15;;;7.20;99.90;;;;;;5091688;28;20061;-67
2022/01/23 10:38:27;;;;;;;9.27;5.35;;;7.20;99.90;;;;;;5091440;28;20068;-66
2022/01/23 10:41:12;;;;;;;11.75;5.63;;;7.20;99.90;;;;;;5091206;28;20047;-66
2022/01/23 10:46:41;;;;;;;16.23;5.90;;;7.20;99.90;;;;;;5091364;28;20051;-66
2022/01/23 10:49:07;;;;;;;11.13;7.05;;;7.30;99.90;;;;;;5091290;28;20397;-66
2022/01/23 10:51:37;;;;;;;28.20;12.40;;;7.30;99.90;;;;;;5091173;28;20046;-66
2022/01/23 10:54:05;;;;;;;28.58;13.10;;;7.30;99.90;;;;;;5072874;28;20101;-66
2022/01/23 10:56:39;;;;;;;19.90;9.00;;;7.30;99.90;;;;;;5091170;28;20040;-66
2022/01/23 10:59:14;;;;;;;19.13;8.20;;;7.30;99.90;;;;;;5091264;28;20474;-66
2022/01/23 11:02:07;;;;;;;10.75;4.72;;;7.30;99.90;;;;;;5091166;28;20044;-67
2022/01/23 11:04:48;;;;;;;8.65;4.57;;;7.40;99.90;;;;;;5055838;28;20130;-66
2022/01/23 11:07:13;;;;;;;11.82;6.00;;;7.30;99.90;;;;;;5072565;28;20051;-66
2022/01/23 11:09:41;;;;;;;9.63;5.30;;;7.40;99.90;;;;;;5090762;28;20040;-67
2022/01/23 11:17:52;;;;;;;4.10;3.03;;;7.40;99.90;;;;;;5072363;28;20590;-66
2022/01/23 11:20:41;;;;;;;8.75;4.07;;;7.30;99.90;;;;;;5072365;28;20040;-66
2022/01/23 11:23:34;;;;;;;8.75;5.38;;;7.30;99.90;;;;;;5090138;28;20097;-66
2022/01/23 11:26:00;;;;;;;8.77;4.53;;;7.40;99.90;;;;;;5090643;28;20167;-66
2022/01/23 11:28:42;;;;;;;7.82;4.32;;;7.40;99.90;;;;;;5072146;28;20564;-66
2022/01/23 11:31:21;;;;;;;5.65;4.25;;;7.40;99.90;;;;;;5090594;28;20040;-66
2022/01/23 11:33:51;;;;;;;12.25;4.88;;;7.40;99.90;;;;;;5090285;28;20139;-67
2022/01/23 11:36:21;;;;;;;11.25;5.38;;;7.40;99.90;;;;;;5059900;28;20393;-68
2022/01/23 11:38:48;;;;;;;9.98;5.53;;;7.40;99.90;;;;;;5094353;28;20040;-68
2022/01/23 11:55:07;;;;;;;12.30;5.65;;;7.40;99.90;;;;;;5094099;28;20044;-68
2022/01/23 11:57:33;;;;;;;9.00;5.28;;;7.40;99.90;;;;;;5093594;28;20042;-69
2022/01/23 12:00:03;;;;;;;19.45;6.20;;;7.40;99.90;;;;;;5093829;28;20123;-68
2022/01/23 12:02:36;;;;;;;7.82;5.28;;;7.30;99.90;;;;;;5093326;28;20059;-68
2022/01/23 12:05:15;;;;;;;9.55;5.57;;;7.40;99.90;;;;;;5093639;28;20035;-68
2022/01/23 12:07:44;;;;;;;11.80;5.63;;;7.40;99.90;;;;;;5075686;28;20048;-68
2022/01/23 12:10:17;;;;;;;7.82;4.05;;;7.40;99.90;;;;;;5075226;28;20090;-68
2022/01/23 12:12:48;;;;;;;5.57;3.65;;;7.40;99.90;;;;;;5092976;28;20565;-68
2022/01/23 12:18:18;;;;;;;4.72;3.70;;;7.40;99.90;;;;;;5067481;28;20395;-68
2022/01/23 12:20:45;;;;;;;2.50;2.00;;;7.40;99.90;;;;;;5052388;28;20139;-68
2022/01/23 12:23:14;;;;;;;3.75;1.90;;;7.40;99.90;;;;;;5033912;28;20045;-68
2022/01/23 12:25:45;;;;;;;2.35;1.60;;;7.30;99.90;;;;;;5050665;28;20174;-68
2022/01/23 12:28:25;;;;;;;2.42;1.73;;;7.30;99.90;;;;;;5051805;28;20045;-68
2022/01/23 12:30:57;;;;;;;2.40;2.20;;;7.30;99.90;;;;;;5034117;28;20047;-68
2022/01/23 12:33:28;;;;;;;5.30;2.88;;;7.30;99.90;;;;;;5051671;28;20045;-70
2022/01/23 12:36:00;;;;;;;4.32;2.42;;;7.30;99.90;;;;;;5045525;28;20075;-69
2022/01/23 12:38:32;;;;;;;3.25;2.00;;;7.30;99.90;;;;;;5061318;28;20501;-69
2022/01/23 12:41:15;;;;;;;3.15;2.47;;;7.30;99.90;;;;;;5070434;28;20072;-68
2022/01/23 12:43:41;;;;;;;3.25;2.67;;;7.30;99.90;;;;;;5071345;28;20124;-68
2022/01/23 12:46:08;;;;;;;2.90;2.60;;;7.30;99.90;;;;;;5071356;28;20544;-68
2022/01/23 12:48:38;;;;;;;3.15;2.22;;;7.30;99.90;;;;;;5070851;28;20484;-66
2022/01/23 12:51:12;;;;;;;2.42;2.10;;;7.30;99.90;;;;;;5053085;28;20112;-67
2022/01/23 12:53:46;;;;;;;2.40;2.15;;;7.30;99.90;;;;;;5070760;28;20040;-66
2022/01/23 12:56:18;;;;;;;2.50;1.98;;;7.30;99.90;;;;;;5072001;28;20049;-66
2022/01/23 12:58:51;;;;;;;3.90;2.00;;;7.30;99.90;;;;;;5072109;28;20040;-66
2022/01/23 13:01:21;;;;;;;3.08;1.88;;;7.30;99.90;;;;;;5071852;28;20094;-67
2022/01/23 13:04:06;;;;;;;2.13;1.92;;;7.30;99.90;;;;;;5072179;28;20097;-67
2022/01/23 13:06:38;;;;;;;4.20;2.30;;;7.30;99.90;;;;;;5037280;28;20052;-67
2022/01/23 13:12:09;;;;;;;3.47;2.22;;;7.30;99.90;;;;;;5071730;28;20048;-66
2022/01/23 13:14:48;;;;;;;3.92;2.90;;;7.20;99.90;;;;;;5071742;28;20063;-66
2022/01/23 13:26:23;;;;;;;4.45;2.60;;;7.30;99.90;;;;;;5071750;28;20067;-66
2022/01/23 13:30:54;;;;;;;2.60;2.15;;;7.30;99.90;;;;;;5071597;28;20124;-67
2022/01/23 13:33:22;;;;;;;5.00;2.28;;;7.20;99.90;;;;;;5053270;28;20035;-68
2022/01/23 13:35:51;;;;;;;3.55;2.90;;;7.20;99.90;;;;;;5053639;28;20047;-67
2022/01/23 13:38:19;;;;;;;5.63;3.95;;;7.10;99.90;;;;;;5071178;28;20076;-67
2022/01/23 13:40:45;;;;;;;4.70;3.28;;;7.20;99.90;;;;;;5071134;28;20037;-67
2022/01/23 14:04:46;;;;;;;4.50;2.70;;;7.30;99.90;;;;;;5072120;28;20044;-67
2022/01/23 14:07:26;;;;;;;2.05;1.80;;;7.30;99.90;;;;;;5070606;28;20250;-67
2022/01/23 14:10:13;;;;;;;3.78;1.98;;;7.30;99.90;;;;;;5052837;28;20036;-67
2022/01/23 14:12:39;;;;;;;2.33;2.00;;;7.30;99.90;;;;;;5070630;28;20037;-67
2022/01/23 14:15:13;;;;;;;6.15;3.60;;;7.20;99.90;;;;;;5052831;28;20497;-67
2022/01/23 14:17:40;;;;;;;3.97;3.00;;;7.20;99.90;;;;;;5070750;28;20036;-67
2022/01/23 14:20:10;;;;;;;3.80;3.45;;;7.20;99.90;;;;;;5052872;28;20108;-67
2022/01/23 14:22:38;;;;;;;5.97;4.38;;;7.20;99.90;;;;;;5070864;28;20109;-67
2022/01/23 14:25:12;;;;;;;5.32;4.57;;;7.20;99.90;;;;;;5053030;28;20047;-67
2022/01/23 14:27:39;;;;;;;6.90;4.00;;;7.20;99.90;;;;;;5052813;28;20374;-67
2022/01/23 14:30:14;;;;;;;5.90;3.35;;;7.20;99.90;;;;;;5036452;28;20651;-66
2022/01/23 14:32:51;;;;;;;7.47;4.90;;;7.20;99.90;;;;;;5036496;28;20044;-66
2022/01/23 14:35:27;;;;;;;4.45;3.15;;;7.20;99.90;;;;;;5071064;28;20043;-67
2022/01/23 14:37:53;;;;;;;3.22;2.70;;;7.20;99.90;;;;;;5070656;28;20048;-66
2022/01/23 14:40:25;;;;;;;3.45;2.90;;;7.10;99.90;;;;;;5052987;28;20052;-66
2022/01/23 14:43:04;;;;;;;2.88;2.67;;;7.20;99.90;;;;;;5070614;28;20463;-66
2022/01/23 14:45:33;;;;;;;3.50;2.50;;;7.20;99.90;;;;;;5053024;28;20044;-66
2022/01/23 14:47:59;;;;;;;4.57;2.60;;;7.10;99.90;;;;;;5070488;28;20114;-67
2022/01/23 14:50:26;;;;;;;4.47;2.75;;;7.10;99.90;;;;;;5070533;28;20062;-67
2022/01/23 14:52:52;;;;;;;3.40;3.10;;;7.10;99.90;;;;;;5047716;28;20048;-66
2022/01/23 14:55:20;;;;;;;5.38;3.55;;;7.10;99.90;;;;;;5049478;28;20033;-67
2022/01/23 14:57:46;;;;;;;6.32;3.92;;;7.10;99.90;;;;;;5032395;28;20040;-67
2022/01/23 15:00:13;;;;;;;8.00;5.20;;;7.10;99.90;;;;;;5032637;28;20068;-67
2022/01/23 15:02:41;;;;;;;6.20;4.15;;;7.10;99.90;;;;;;5050352;28;20172;-67
2022/01/23 15:05:07;;;;;;;9.35;6.28;;;7.00;99.90;;;;;;5050711;28;20063;-67
2022/01/23 15:07:39;;;;;;;7.50;5.25;;;7.00;99.90;;;;;;5050369;28;20056;-66
2022/01/23 15:10:05;;;;;;;8.77;5.70;;;7.10;99.90;;;;;;5052937;28;20049;-66
2022/01/23 15:12:31;;;;;;;11.10;6.70;;;7.00;99.90;;;;;;5053540;28;20036;-67
2022/01/23 15:14:57;;;;;;;12.65;6.50;;;7.00;99.90;;;;;;5053993;28;20041;-67
2022/01/23 15:17:22;;;;;;;9.82;6.25;;;7.10;99.90;;;;;;5053669;28;20464;-67
2022/01/23 15:19:48;;;;;;;7.25;4.00;;;7.10;99.90;;;;;;5053840;28;20514;-67
2022/01/23 15:22:14;;;;;;;3.80;3.20;;;7.10;99.90;;;;;;5053700;28;20045;-67
2022/01/23 15:24:39;;;;;;;4.13;3.53;;;7.10;99.90;;;;;;5054139;28;20374;-67
2022/01/23 15:27:05;;;;;;;5.50;4.10;;;7.10;99.90;;;;;;5053137;28;20041;-67
2022/01/23 15:29:31;;;;;;;6.00;3.78;;;7.00;99.90;;;;;;5054084;28;20051;-66
2022/01/23 15:31:57;;;;;;;5.78;4.00;;;7.00;99.90;;;;;;5053870;28;20083;-67
2022/01/23 15:34:23;;;;;;;6.65;3.47;;;7.00;99.90;;;;;;5054035;28;20045;-66
2022/01/23 15:36:52;;;;;;;7.25;4.32;;;7.00;99.90;;;;;;5048096;28;20121;-67
2022/01/23 15:39:19;;;;;;;5.90;3.83;;;7.00;99.90;;;;;;5070493;28;20472;-67
2022/01/23 15:41:45;;;;;;;4.22;3.30;;;7.00;99.90;;;;;;5037406;28;20048;-67
2022/01/23 15:44:10;;;;;;;5.70;4.40;;;7.00;99.90;;;;;;5073767;28;20047;-67
2022/01/23 15:46:36;;;;;;;6.57;3.80;;;7.00;99.90;;;;;;5055402;28;20495;-67
2022/01/23 15:49:02;;;;;;;5.53;3.72;;;7.00;99.90;;;;;;5073475;28;20086;-67
2022/01/23 15:51:28;;;;;;;9.82;5.28;;;7.00;99.90;;;;;;5073065;28;20550;-67
2022/01/23 15:53:56;;;;;;;9.70;5.50;;;7.00;99.90;;;;;;5072933;28;20068;-67
2022/01/23 15:56:22;;;;;;;6.68;5.03;;;7.00;99.90;;;;;;5072676;28;20068;-67
2022/01/23 15:58:48;;;;;;;8.70;5.68;;;6.90;99.90;;;;;;5073678;28;20085;-66
2022/01/23 16:01:13;;;;;;;6.97;5.30;;;7.00;99.90;;;;;;5055065;28;20041;-67
2022/01/23 16:03:39;;;;;;;6.30;4.45;;;6.90;99.90;;;;;;5072851;28;20040;-67
2022/01/23 16:06:05;;;;;;;6.00;4.60;;;7.00;99.90;;;;;;5055151;28;20040;-67
2022/01/23 16:08:30;;;;;;;5.15;4.55;;;7.00;99.90;;;;;;5072580;28;20068;-67
2022/01/23 16:10:56;;;;;;;6.20;4.07;;;6.90;99.90;;;;;;5072756;28;20032;-67